createdAt,value
2022-11-03T00:02:24.159Z,0.73
2022-11-03T00:04:53.699Z,0.83
2022-11-03T00:07:26.206Z,0.77
2022-11-03T00:09:55.701Z,1.10
2022-11-03T00:12:25.179Z,0.90
2022-11-03T00:14:54.695Z,1.13
2022-11-03T00:17:24.158Z,0.67
2022-11-03T00:19:53.667Z,1.00
2022-11-03T00:22:23.146Z,1.10
2022-11-03T00:24:52.659Z,0.57
2022-11-03T00:27:22.112Z,0.70
2022-11-03T00:29:51.630Z,0.83
2022-11-03T00:32:21.101Z,0.90
2022-11-03T00:34:50.599Z,1.10
2022-11-03T00:37:20.061Z,0.80
2022-11-03T00:39:49.559Z,0.90
2022-11-03T00:42:19.053Z,0.70
2022-11-03T00:44:48.532Z,1.00
2022-11-03T00:47:21.552Z,0.63
2022-11-03T00:49:49.151Z,0.80
2022-11-03T00:52:18.638Z,0.70
2022-11-03T00:54:52.706Z,0.90
2022-11-03T00:57:19.384Z,0.77
2022-11-03T00:59:48.838Z,0.80
2022-11-03T01:02:18.436Z,0.60
2022-11-03T01:05:05.977Z,0.80
2022-11-03T01:07:35.460Z,0.60
2022-11-03T01:10:05.049Z,1.17
2022-11-03T01:12:34.512Z,0.70
2022-11-03T01:15:04.306Z,0.40
2022-11-03T01:17:33.776Z,0.90
2022-11-03T01:20:04.046Z,0.77
2022-11-03T01:22:33.524Z,0.53
2022-11-03T01:25:03.027Z,0.83
2022-11-03T01:27:34.051Z,0.60
2022-11-03T01:30:03.645Z,0.90
2022-11-03T01:32:33.107Z,0.80
2022-11-03T01:35:02.618Z,0.70
2022-11-03T01:37:32.114Z,1.30
2022-11-03T01:40:01.632Z,0.77
2022-11-03T01:42:31.191Z,0.97
2022-11-03T01:45:00.697Z,0.80
2022-11-03T01:47:33.807Z,0.70
2022-11-03T01:50:07.944Z,0.73
2022-11-03T01:52:56.549Z,0.70
2022-11-03T01:55:30.807Z,0.70
2022-11-03T01:58:16.444Z,0.73
2022-11-03T02:00:50.295Z,0.70
2022-11-03T02:03:21.601Z,0.50
2022-11-03T02:05:53.385Z,0.73
2022-11-03T02:08:38.793Z,0.50
2022-11-03T02:11:26.387Z,0.50
2022-11-03T02:13:55.884Z,0.57
2022-11-03T02:16:29.078Z,0.50
2022-11-03T02:19:03.036Z,0.50
2022-11-03T02:21:56.765Z,0.70
2022-11-03T02:25:01.088Z,0.60
2022-11-03T02:27:30.782Z,0.67
2022-11-03T02:30:01.018Z,0.50
2022-11-03T02:32:55.538Z,0.60
2022-11-03T02:35:47.832Z,0.60
2022-11-03T02:38:21.561Z,0.67
2022-11-03T02:40:55.377Z,0.83
2022-11-03T02:43:26.454Z,0.70
2022-11-03T02:45:57.756Z,0.70
2022-11-03T02:48:27.378Z,0.70
2022-11-03T02:50:56.924Z,0.50
2022-11-03T02:53:30.736Z,0.60
2022-11-03T02:56:10.729Z,0.67
2022-11-03T02:59:05.526Z,0.40
2022-11-03T03:01:48.305Z,0.53
2022-11-03T03:04:31.834Z,0.60
2022-11-03T03:07:17.808Z,0.50
2022-11-03T03:09:51.911Z,0.50
2022-11-03T03:12:23.004Z,0.70
2022-11-03T03:14:54.806Z,0.53
2022-11-03T03:17:40.363Z,0.57
2022-11-03T03:20:17.271Z,0.40
2022-11-03T03:23:06.220Z,0.60
2022-11-03T03:25:41.660Z,0.40
2022-11-03T03:28:17.430Z,0.70
2022-11-03T03:30:49.721Z,0.30
2022-11-03T03:33:21.221Z,0.70
2022-11-03T03:35:53.723Z,0.67
2022-11-03T03:38:27.989Z,0.80
2022-11-03T03:41:05.540Z,0.62
2022-11-03T03:43:35.353Z,0.70
2022-11-03T03:46:09.414Z,0.57
2022-11-03T03:48:39.197Z,0.50
2022-11-03T03:51:09.501Z,0.50
2022-11-03T03:53:38.998Z,0.80
2022-11-03T03:56:08.709Z,0.60
2022-11-03T03:58:38.217Z,0.60
2022-11-03T04:01:07.772Z,0.40
2022-11-03T04:03:37.263Z,0.50
2022-11-03T04:06:06.948Z,0.43
2022-11-03T04:08:36.449Z,0.60
2022-11-03T04:11:23.829Z,0.70
2022-11-03T04:14:12.438Z,0.63
2022-11-03T04:16:59.664Z,0.40
2022-11-03T04:19:46.874Z,0.50
2022-11-03T04:22:19.246Z,0.30
2022-11-03T04:24:52.666Z,0.40
2022-11-03T04:27:35.097Z,0.50
2022-11-03T04:30:12.204Z,0.70
2022-11-03T04:32:41.693Z,0.43
2022-11-03T04:35:24.417Z,0.90
2022-11-03T04:38:07.863Z,0.33
2022-11-03T04:40:39.191Z,0.50
2022-11-03T04:43:14.815Z,0.33
2022-11-03T04:45:47.527Z,0.60
2022-11-03T04:48:23.335Z,0.40
2022-11-03T04:50:56.852Z,0.40
2022-11-03T04:53:29.909Z,0.37
2022-11-03T04:56:06.197Z,0.40
2022-11-03T04:58:35.762Z,0.60
2022-11-03T05:01:07.842Z,0.30
2022-11-03T05:03:40.352Z,0.57
2022-11-03T05:06:17.441Z,0.70
2022-11-03T05:08:54.261Z,0.30
2022-11-03T05:11:43.070Z,0.50
2022-11-03T05:14:25.520Z,0.30
2022-11-03T05:16:57.319Z,0.40
2022-11-03T05:19:42.617Z,0.30
2022-11-03T05:22:22.792Z,0.37
2022-11-03T05:24:56.887Z,0.23
2022-11-03T05:27:26.536Z,0.40
2022-11-03T05:30:01.216Z,0.67
2022-11-03T05:32:34.419Z,0.50
2022-11-03T05:35:04.375Z,0.30
2022-11-03T05:37:36.461Z,0.30
2022-11-03T05:40:25.096Z,0.60
2022-11-03T05:42:59.471Z,0.40
2022-11-03T05:45:38.091Z,0.30
2022-11-03T05:48:36.218Z,0.33
2022-11-03T05:51:22.105Z,0.27
2022-11-03T05:53:58.884Z,0.40
2022-11-03T05:56:28.358Z,0.20
2022-11-03T05:58:58.703Z,0.20
2022-11-03T06:01:40.317Z,0.30
2022-11-03T06:04:23.092Z,0.40
2022-11-03T06:07:02.975Z,0.43
2022-11-03T06:09:35.409Z,0.70
2022-11-03T06:12:07.526Z,0.77
2022-11-03T06:14:38.982Z,0.70
2022-11-03T06:17:15.508Z,0.47
2022-11-03T06:19:51.970Z,0.53
2022-11-03T06:22:34.678Z,0.50
2022-11-03T06:25:26.327Z,0.40
2022-11-03T06:28:00.620Z,0.53
2022-11-03T06:33:25.018Z,0.40
2022-11-03T06:35:58.743Z,0.50
2022-11-03T06:38:32.449Z,0.60
2022-11-03T06:41:01.946Z,0.80
2022-11-03T06:43:41.820Z,0.53
2022-11-03T06:46:27.109Z,0.50
2022-11-03T06:49:00.593Z,0.40
2022-11-03T06:51:31.817Z,0.63
2022-11-03T06:54:04.459Z,0.60
2022-11-03T06:56:37.844Z,0.40
2022-11-03T06:59:12.194Z,0.50
2022-11-03T07:01:42.172Z,0.40
2022-11-03T07:04:27.271Z,0.40
2022-11-03T07:07:01.334Z,0.40
2022-11-03T07:09:30.829Z,0.50
2022-11-03T07:12:02.370Z,0.60
2022-11-03T07:14:34.633Z,0.63
2022-11-03T07:17:24.157Z,0.47
2022-11-03T07:19:53.751Z,1.40
2022-11-03T07:22:28.158Z,1.30
2022-11-03T07:25:02.112Z,1.20
2022-11-03T07:27:36.339Z,1.60
2022-11-03T07:30:13.105Z,1.40
2022-11-03T07:32:42.571Z,1.50
2022-11-03T07:35:53.295Z,2.13
2022-11-03T07:38:16.408Z,2.10
2022-11-03T07:40:46.180Z,1.13
2022-11-03T07:43:22.878Z,1.40
2022-11-03T07:45:55.923Z,1.10
2022-11-03T07:48:41.421Z,1.63
2022-11-03T07:51:33.090Z,1.90
2022-11-03T07:54:15.738Z,1.60
2022-11-03T07:56:57.629Z,1.20
2022-11-03T07:59:46.481Z,1.50
2022-11-03T08:02:44.531Z,1.20
2022-11-03T08:05:14.034Z,1.10
2022-11-03T08:07:43.529Z,1.30
2022-11-03T08:10:13.762Z,1.10
2022-11-03T08:12:43.191Z,1.10
2022-11-03T08:15:12.776Z,1.10
2022-11-03T08:17:42.220Z,1.13
2022-11-03T08:20:12.295Z,1.20
2022-11-03T08:22:49.847Z,1.30
2022-11-03T08:25:12.900Z,1.23
2022-11-03T08:27:42.348Z,1.80
2022-11-03T08:30:12.295Z,1.23
2022-11-03T08:32:41.751Z,1.30
2022-11-03T08:35:11.256Z,1.30
2022-11-03T08:37:40.712Z,1.27
2022-11-03T08:40:11.165Z,1.40
2022-11-03T08:42:40.622Z,1.13
2022-11-03T08:45:11.224Z,1.20
2022-11-03T08:47:40.677Z,1.53
2022-11-03T08:50:10.255Z,1.50
2022-11-03T08:52:39.710Z,2.00
2022-11-03T08:55:09.923Z,1.67
2022-11-03T08:57:39.427Z,1.60
2022-11-03T09:00:10.000Z,1.63
2022-11-03T09:02:39.520Z,1.37
2022-11-03T09:05:09.282Z,1.80
2022-11-03T09:10:20.406Z,1.17
2022-11-03T09:12:42.941Z,1.57
2022-11-03T09:15:12.926Z,1.20
2022-11-03T09:17:44.764Z,1.47
2022-11-03T09:20:14.322Z,1.20
2022-11-03T09:22:43.787Z,1.23
2022-11-03T09:25:13.282Z,1.20
2022-11-03T09:27:42.911Z,1.07
2022-11-03T09:30:14.300Z,0.90
2022-11-03T09:32:44.129Z,1.20
2022-11-03T09:35:14.685Z,1.10
2022-11-03T09:37:44.690Z,1.10
2022-11-03T09:40:17.612Z,0.60
2022-11-03T09:42:47.348Z,0.90
2022-11-03T09:45:16.856Z,1.20
2022-11-03T09:47:47.565Z,1.30
2022-11-03T09:50:21.249Z,0.90
2022-11-03T09:52:55.408Z,1.13
2022-11-03T09:55:28.302Z,1.17
2022-11-03T09:58:02.513Z,1.07
2022-11-03T10:00:31.942Z,0.77
2022-11-03T10:03:02.985Z,1.20
2022-11-03T10:05:32.555Z,0.70
2022-11-03T10:08:06.846Z,1.00
2022-11-03T10:10:37.783Z,1.20
2022-11-03T10:13:09.617Z,0.73
2022-11-03T10:15:41.794Z,1.17
2022-11-03T10:18:11.918Z,1.50
2022-11-03T10:20:41.512Z,1.27
2022-11-03T10:23:11.146Z,0.90
2022-11-03T10:25:44.295Z,0.77
2022-11-03T10:28:26.767Z,1.00
2022-11-03T10:31:17.283Z,1.03
2022-11-03T10:33:40.441Z,1.33
2022-11-03T10:36:20.507Z,0.77
2022-11-03T10:38:50.761Z,0.80
2022-11-03T10:41:32.278Z,0.70
2022-11-03T10:44:08.646Z,1.20
2022-11-03T10:46:54.489Z,1.10
2022-11-03T10:49:19.218Z,0.80
2022-11-03T10:51:58.038Z,1.30
2022-11-03T10:54:27.713Z,1.07
2022-11-03T10:56:57.238Z,1.30
2022-11-03T10:59:33.741Z,0.97
2022-11-03T11:02:04.880Z,0.70
2022-11-03T11:04:34.659Z,0.60
2022-11-03T11:07:04.112Z,1.30
2022-11-03T11:09:34.328Z,1.27
2022-11-03T11:12:07.935Z,0.97
2022-11-03T11:14:41.446Z,0.90
2022-11-03T11:17:34.443Z,0.80
2022-11-03T11:20:41.745Z,0.87
2022-11-03T11:23:36.608Z,0.90
2022-11-03T11:26:29.515Z,0.53
2022-11-03T11:29:15.726Z,1.00
2022-11-03T11:31:49.032Z,1.40
2022-11-03T11:34:26.095Z,0.93
2022-11-03T11:37:03.771Z,1.17
2022-11-03T11:39:39.468Z,1.20
2022-11-03T11:42:20.894Z,1.23
2022-11-03T11:44:54.543Z,0.90
2022-11-03T11:47:51.641Z,0.77
2022-11-03T11:50:29.194Z,0.70
2022-11-03T11:53:06.345Z,0.80
2022-11-03T11:56:01.145Z,1.20
2022-11-03T11:58:54.933Z,0.97
2022-11-03T12:01:29.064Z,0.70
2022-11-03T12:06:46.996Z,0.90
2022-11-03T12:09:23.446Z,0.80
2022-11-03T12:12:00.758Z,0.70
2022-11-03T12:14:36.417Z,0.70
2022-11-03T12:17:28.376Z,0.87
2022-11-03T12:19:57.817Z,0.83
2022-11-03T12:22:31.879Z,1.10
2022-11-03T12:25:14.068Z,0.80
2022-11-03T12:27:44.776Z,0.73
2022-11-03T12:30:20.378Z,0.87
2022-11-03T12:32:51.671Z,0.90
2022-11-03T12:35:21.304Z,0.90
2022-11-03T12:37:50.747Z,1.00
2022-11-03T12:40:20.200Z,1.00
2022-11-03T12:42:49.643Z,0.73
2022-11-03T12:45:19.100Z,1.20
2022-11-03T12:47:48.542Z,1.30
2022-11-03T12:50:18.168Z,0.90
2022-11-03T12:52:47.607Z,0.70
2022-11-03T12:55:17.347Z,1.07
2022-11-03T12:57:46.936Z,1.30
2022-11-03T13:00:17.826Z,1.20
2022-11-03T13:02:47.432Z,0.97
2022-11-03T13:05:17.067Z,0.80
2022-11-03T13:07:46.502Z,0.80
2022-11-03T13:10:16.637Z,0.90
2022-11-03T13:12:46.751Z,1.27
2022-11-03T13:15:16.269Z,1.00
2022-11-03T13:18:11.593Z,1.00
2022-11-03T13:20:16.898Z,0.93
2022-11-03T13:22:46.327Z,1.07
2022-11-03T13:25:15.912Z,1.20
2022-11-03T13:27:45.553Z,1.23
2022-11-03T13:30:15.083Z,1.10
2022-11-03T13:32:44.788Z,1.37
2022-11-03T13:35:14.496Z,1.20
2022-11-03T13:37:44.294Z,1.30
2022-11-03T13:42:48.743Z,1.20
2022-11-03T13:45:18.198Z,1.00
2022-11-03T13:50:19.492Z,1.80
2022-11-03T13:52:49.425Z,1.50
2022-11-03T14:00:22.518Z,1.47
2022-11-03T14:05:23.396Z,1.40
2022-11-03T14:07:52.833Z,1.17
2022-11-03T14:10:22.294Z,1.60
2022-11-03T14:12:51.728Z,1.20
2022-11-03T14:15:21.262Z,1.20
2022-11-03T14:17:50.692Z,0.93
2022-11-03T14:20:20.217Z,1.10
2022-11-03T14:22:49.665Z,1.10
2022-11-03T14:25:20.264Z,1.73
2022-11-03T14:27:50.720Z,1.27
2022-11-03T14:30:20.374Z,1.50
2022-11-03T14:32:49.814Z,1.50
2022-11-03T14:35:20.914Z,1.50
2022-11-03T14:37:50.349Z,1.40
2022-11-03T14:40:37.592Z,1.20
2022-11-03T14:43:07.346Z,1.37
2022-11-03T14:45:39.768Z,1.20
2022-11-03T14:48:08.627Z,1.40
2022-11-03T14:50:38.417Z,2.07
2022-11-03T14:53:07.863Z,1.70
2022-11-03T14:55:37.316Z,1.40
2022-11-03T14:58:07.103Z,1.30
2022-11-03T15:00:36.696Z,1.50
2022-11-03T15:03:06.301Z,1.57
2022-11-03T15:05:44.707Z,1.70
2022-11-03T15:08:19.682Z,1.30
2022-11-03T15:10:49.296Z,1.40
2022-11-03T15:13:18.738Z,1.30
2022-11-03T15:15:48.191Z,1.10
2022-11-03T15:18:18.085Z,2.37
2022-11-03T15:20:47.601Z,1.50
2022-11-03T15:25:48.298Z,1.20
2022-11-03T15:28:17.730Z,1.50
2022-11-03T15:30:47.857Z,1.30
2022-11-03T15:33:17.634Z,1.50
2022-11-03T15:35:47.133Z,1.77
2022-11-03T15:38:16.600Z,1.50
2022-11-03T15:40:46.059Z,1.10
2022-11-03T15:43:15.581Z,1.37
2022-11-03T15:45:45.033Z,1.20
2022-11-03T15:48:14.477Z,1.43
2022-11-03T15:50:43.934Z,1.20
2022-11-03T15:53:13.379Z,1.13
2022-11-03T15:55:42.828Z,1.50
2022-11-03T15:58:12.267Z,1.60
2022-11-03T16:00:41.722Z,1.60
2022-11-03T16:03:11.389Z,1.53
2022-11-03T16:05:40.892Z,1.40
2022-11-03T16:08:10.724Z,1.27
2022-11-03T16:10:44.207Z,1.70
2022-11-03T16:13:11.667Z,1.77
2022-11-03T16:15:41.133Z,1.90
2022-11-03T16:18:10.834Z,2.20
2022-11-03T16:20:40.504Z,1.80
2022-11-03T16:23:09.955Z,2.20
2022-11-03T16:25:39.573Z,2.30
2022-11-03T16:28:09.784Z,2.40
2022-11-03T16:30:39.421Z,2.07
2022-11-03T16:33:09.331Z,2.00
2022-11-03T16:35:38.784Z,1.63
2022-11-03T16:38:11.018Z,2.10
2022-11-03T16:40:40.535Z,2.33
2022-11-03T16:43:09.958Z,2.00
2022-11-03T16:45:39.482Z,2.33
2022-11-03T16:48:09.338Z,2.30
2022-11-03T16:50:41.545Z,1.97
2022-11-03T16:53:10.470Z,2.70
2022-11-03T16:55:40.067Z,2.70
2022-11-03T16:58:09.980Z,2.30
2022-11-03T17:00:39.650Z,2.80
2022-11-03T17:03:09.317Z,3.07
2022-11-03T17:05:38.906Z,3.17
2022-11-03T17:08:31.663Z,3.10
2022-11-03T17:10:39.584Z,3.30
2022-11-03T17:13:10.294Z,3.50
2022-11-03T17:15:39.953Z,3.10
2022-11-03T17:18:10.622Z,3.20
2022-11-03T17:20:40.170Z,13.25
2022-11-03T17:23:09.843Z,7.20
2022-11-03T17:25:39.864Z,3.73
2022-11-03T17:28:12.309Z,3.30
2022-11-03T17:30:42.307Z,2.53
2022-11-03T17:33:16.595Z,2.50
2022-11-03T17:35:47.465Z,2.30
2022-11-03T17:38:19.317Z,2.33
2022-11-03T17:40:50.485Z,2.03
2022-11-03T17:43:24.261Z,2.07
2022-11-03T17:45:53.833Z,1.80
2022-11-03T17:48:24.180Z,2.00
2022-11-03T17:50:57.676Z,2.30
2022-11-03T17:53:31.161Z,2.00
2022-11-03T17:56:29.092Z,2.20
2022-11-03T17:58:44.865Z,2.10
2022-11-03T18:01:11.076Z,1.90
2022-11-03T18:03:40.593Z,2.80
2022-11-03T18:06:19.674Z,2.93
2022-11-03T18:08:50.518Z,2.30
2022-11-03T18:11:45.454Z,3.33
2022-11-03T18:14:15.611Z,3.57
2022-11-03T18:16:45.235Z,2.70
2022-11-03T18:19:18.279Z,2.40
2022-11-03T18:21:48.717Z,3.17
2022-11-03T18:24:21.811Z,2.50
2022-11-03T18:26:51.258Z,2.20
2022-11-03T18:29:20.867Z,2.40
2022-11-03T18:31:50.905Z,2.10
2022-11-03T18:34:28.028Z,4.00
2022-11-03T18:36:57.487Z,5.90
2022-11-03T18:39:29.766Z,5.20
2022-11-03T18:41:59.236Z,4.10
2022-11-03T18:44:31.009Z,3.40
2022-11-03T18:47:00.734Z,2.70
2022-11-03T18:49:31.816Z,2.40
2022-11-03T18:52:14.247Z,2.50
2022-11-03T18:54:47.650Z,2.33
2022-11-03T18:57:20.848Z,2.70
2022-11-03T18:59:50.830Z,2.53
2022-11-03T19:02:26.492Z,2.53
2022-11-03T19:04:56.183Z,2.50
2022-11-03T19:07:30.321Z,2.43
2022-11-03T19:10:00.688Z,2.07
2022-11-03T19:12:32.769Z,2.63
2022-11-03T19:15:02.025Z,3.50
2022-11-03T19:17:37.404Z,4.80
2022-11-03T19:20:18.400Z,5.10
2022-11-03T19:22:48.573Z,7.67
2022-11-03T19:25:18.640Z,4.60
2022-11-03T19:27:49.881Z,4.80
2022-11-03T19:30:21.230Z,3.63
2022-11-03T19:32:57.186Z,3.30
2022-11-03T19:35:33.347Z,3.70
2022-11-03T19:38:10.776Z,3.50
2022-11-03T19:40:42.705Z,2.60
2022-11-03T19:43:12.155Z,4.40
2022-11-03T19:45:41.672Z,3.40
2022-11-03T19:48:29.041Z,2.70
2022-11-03T19:50:44.943Z,2.53
2022-11-03T19:53:19.012Z,2.20
2022-11-03T19:55:49.057Z,2.03
2022-11-03T19:58:25.166Z,2.40
2022-11-03T20:00:56.133Z,3.00
2022-11-03T20:03:26.279Z,3.20
2022-11-03T20:05:58.037Z,2.60
2022-11-03T20:08:32.254Z,3.20
2022-11-03T20:11:02.112Z,3.67
2022-11-03T20:13:36.168Z,5.50
2022-11-03T20:16:08.583Z,4.03
2022-11-03T20:18:38.311Z,2.77
2022-11-03T20:21:09.930Z,2.30
2022-11-03T20:23:40.147Z,2.47
2022-11-03T20:26:17.207Z,2.23
2022-11-03T20:28:47.176Z,2.63
2022-11-03T20:31:18.524Z,3.03
2022-11-03T20:33:47.967Z,2.60
2022-11-03T20:36:20.641Z,2.30
2022-11-03T20:39:01.304Z,3.03
2022-11-03T20:41:31.970Z,2.80
2022-11-03T20:44:01.478Z,2.80
2022-11-03T20:46:34.610Z,2.10
2022-11-03T20:49:04.054Z,2.00
2022-11-03T20:51:37.850Z,2.53
2022-11-03T20:54:18.121Z,2.30
2022-11-03T20:56:48.690Z,2.70
2022-11-03T20:59:21.141Z,4.60
2022-11-03T21:01:50.806Z,3.40
2022-11-03T21:04:22.087Z,3.63
2022-11-03T21:06:51.554Z,2.97
2022-11-03T21:09:21.174Z,3.37
2022-11-03T21:11:53.137Z,3.00
2022-11-03T21:14:29.746Z,3.70
2022-11-03T21:17:17.246Z,3.60
2022-11-03T21:20:06.437Z,3.20
2022-11-03T21:22:53.299Z,3.17
2022-11-03T21:25:21.883Z,4.10
2022-11-03T21:27:51.697Z,4.60
2022-11-03T21:30:21.474Z,5.17
2022-11-03T21:32:50.997Z,5.10
2022-11-03T21:35:22.763Z,3.77
2022-11-03T21:37:52.543Z,3.90
2022-11-03T21:40:22.237Z,3.60
2022-11-03T21:42:59.087Z,3.37
2022-11-03T21:45:29.065Z,4.20
2022-11-03T21:48:11.827Z,3.57
2022-11-03T21:50:37.213Z,3.67
2022-11-03T21:53:07.483Z,3.20
2022-11-03T21:55:37.470Z,4.07
2022-11-03T21:58:07.351Z,3.30
2022-11-03T22:00:36.882Z,3.23
2022-11-03T22:03:06.864Z,2.53
2022-11-03T22:05:36.697Z,2.00
2022-11-03T22:08:10.741Z,2.03
2022-11-03T22:10:41.124Z,2.10
2022-11-03T22:13:11.327Z,1.47
2022-11-03T22:15:59.034Z,1.50
2022-11-03T22:18:29.243Z,1.60
2022-11-03T22:21:17.990Z,1.80
2022-11-03T22:23:54.800Z,1.40
2022-11-03T22:26:42.099Z,1.33
2022-11-03T22:29:29.489Z,1.80
2022-11-03T22:31:58.944Z,2.00
2022-11-03T22:34:46.248Z,2.40
2022-11-03T22:37:15.714Z,1.53
2022-11-03T22:40:02.757Z,1.73
2022-11-03T22:42:49.940Z,1.77
2022-11-03T22:45:37.629Z,2.00
2022-11-03T22:48:07.289Z,1.80
2022-11-03T22:50:36.752Z,1.90
2022-11-03T22:53:17.480Z,1.63
2022-11-03T22:55:46.933Z,2.00
2022-11-03T22:58:16.451Z,1.53
2022-11-03T23:00:47.473Z,1.13
2022-11-03T23:03:16.975Z,2.00
2022-11-03T23:05:46.429Z,1.77
2022-11-03T23:08:15.977Z,1.60
2022-11-03T23:10:45.412Z,1.80
2022-11-03T23:13:14.856Z,1.30
2022-11-03T23:15:44.307Z,1.07
2022-11-03T23:18:31.581Z,1.00
2022-11-03T23:21:07.016Z,1.10
2022-11-03T23:23:58.056Z,0.80
2022-11-03T23:26:28.547Z,1.67
2022-11-03T23:28:57.991Z,1.40
2022-11-03T23:31:27.448Z,1.53
2022-11-03T23:36:30.336Z,0.97
2022-11-03T23:39:01.793Z,1.00
2022-11-03T23:41:31.793Z,0.90
2022-11-03T23:44:01.508Z,1.00
2022-11-03T23:46:49.222Z,0.80
2022-11-03T23:49:18.735Z,0.80
2022-11-03T23:51:48.265Z,0.90
2022-11-03T23:54:18.013Z,1.07
2022-11-03T23:57:06.991Z,0.80
2022-11-03T23:59:36.765Z,0.90
